createdAt,value
2019-03-20T00:01:08.270Z,3.9
2019-03-20T00:11:20.606Z,4.5
2019-03-20T00:21:20.038Z,4.1
2019-03-20T00:31:21.472Z,4.3
2019-03-20T00:41:32.009Z,4.6
2019-03-20T00:51:31.467Z,3.6
2019-03-20T01:01:31.311Z,4.4
2019-03-20T01:11:43.240Z,3.9
2019-03-20T01:21:42.652Z,4.1
2019-03-20T01:31:44.948Z,3.9
2019-03-20T01:41:54.862Z,3.6
2019-03-20T01:51:54.362Z,3.8
2019-03-20T02:01:53.784Z,4.2
2019-03-20T02:11:51.812Z,8.7
2019-03-20T02:21:49.582Z,7.9
2019-03-20T02:31:49.365Z,3.6
2019-03-20T02:41:47.722Z,8.4
2019-03-20T02:51:47.441Z,6
2019-03-20T03:01:48.543Z,3.8
2019-03-20T03:11:48.543Z,3.6
2019-03-20T03:21:48.298Z,3
2019-03-20T03:31:49.072Z,4.9
2019-03-20T03:41:52.833Z,3.7
2019-03-20T03:51:55.327Z,3.4
2019-03-20T04:01:55.204Z,3.5
2019-03-20T04:12:05.932Z,5.1
2019-03-20T04:22:07.208Z,3.7
2019-03-20T04:32:06.863Z,4.3
2019-03-20T04:42:18.947Z,3.8
2019-03-20T04:52:18.324Z,3.3
2019-03-20T05:02:17.826Z,4
2019-03-20T05:12:29.226Z,5.2
2019-03-20T05:22:31.818Z,4.3
2019-03-20T05:32:31.342Z,2.9
2019-03-20T05:42:41.460Z,4
2019-03-20T05:52:40.855Z,3.8
2019-03-20T06:02:42.846Z,3.9
2019-03-20T06:12:52.711Z,4.1
2019-03-20T06:22:54.643Z,4
2019-03-20T06:32:54.027Z,4
2019-03-20T06:43:03.595Z,4
2019-03-20T06:53:03.129Z,3.6
2019-03-20T07:03:02.567Z,3.9
2019-03-20T07:13:14.550Z,4.5
2019-03-20T07:23:14.053Z,3.9
2019-03-20T07:33:13.557Z,3.6
2019-03-20T07:43:13.178Z,3.4
2019-03-20T07:53:12.929Z,3.4
2019-03-20T08:03:12.408Z,4.2
2019-03-20T08:13:11.922Z,4.1
2019-03-20T08:23:11.477Z,3.5
2019-03-20T08:33:10.872Z,4.4
2019-03-20T08:43:10.350Z,4.6
2019-03-20T08:53:09.888Z,4.5
2019-03-20T09:03:09.460Z,4.5
2019-03-20T09:13:20.872Z,8.3
2019-03-20T09:23:20.275Z,5.2
2019-03-20T09:33:20.010Z,5.9
2019-03-20T09:43:23.489Z,5.3
2019-03-20T09:53:23.005Z,5.7
2019-03-20T10:03:22.497Z,5.7
2019-03-20T10:13:27.789Z,5.6
2019-03-20T10:23:27.283Z,5.1
2019-03-20T10:33:26.699Z,5.6
2019-03-20T10:43:38.005Z,4.5
2019-03-20T10:53:37.577Z,4.7
2019-03-20T11:03:37.185Z,4.3
2019-03-20T11:13:58.459Z,4
2019-03-20T11:24:00.325Z,4.8
2019-03-20T11:33:59.922Z,4.8
2019-03-20T11:44:00.883Z,4.2
2019-03-20T11:54:03.178Z,4
2019-03-20T12:04:02.769Z,4.4
2019-03-20T12:14:17.296Z,4.2
2019-03-20T12:24:16.988Z,3.8
2019-03-20T12:34:16.486Z,3.6
2019-03-20T12:44:24.236Z,4.3
2019-03-20T12:54:23.879Z,3.6
2019-03-20T13:04:25.504Z,3.9
2019-03-20T13:14:38.204Z,4.3
2019-03-20T13:24:37.729Z,4.5
2019-03-20T13:34:37.265Z,4.4
2019-03-20T13:44:45.633Z,4.9
2019-03-20T13:54:46.613Z,5
2019-03-20T14:04:46.153Z,4
2019-03-20T14:14:59.522Z,5.3
2019-03-20T14:24:59.107Z,4.3
2019-03-20T14:34:58.540Z,6.4
2019-03-20T14:45:07.420Z,5.4
2019-03-20T14:55:12.859Z,4.9
2019-03-20T15:05:12.240Z,4.6
2019-03-20T15:15:17.022Z,4.8
2019-03-20T15:25:16.468Z,4.5
2019-03-20T15:35:15.950Z,4.6
2019-03-20T15:45:33.862Z,5.7
2019-03-20T15:55:33.461Z,5.1
2019-03-20T16:05:33.055Z,5
2019-03-20T16:15:37.864Z,5.9
2019-03-20T16:25:38.204Z,7.9
2019-03-20T16:35:37.573Z,8.9
2019-03-20T16:45:47.752Z,10.6
2019-03-20T16:55:47.309Z,7.7
2019-03-20T17:05:46.747Z,9.3
2019-03-20T17:16:08.821Z,6.8
2019-03-20T17:26:13.377Z,6.1
2019-03-20T17:36:13.200Z,7.1
2019-03-20T17:46:12.879Z,6.7
2019-03-20T17:56:12.458Z,6.9
2019-03-20T18:06:12.347Z,8.9
2019-03-20T18:16:18.646Z,13
2019-03-20T18:26:19.225Z,13.6
2019-03-20T18:36:18.904Z,13.2
2019-03-20T18:46:28.264Z,25.5
2019-03-20T18:56:28.726Z,8.6
2019-03-20T19:06:29.115Z,7.3
2019-03-20T19:16:39.907Z,7.6
2019-03-20T19:26:40.867Z,6.5
2019-03-20T19:36:43.712Z,10.6
2019-03-20T19:46:53.800Z,12.3
2019-03-20T19:56:52.186Z,13.4
2019-03-20T20:06:51.835Z,8.7
2019-03-20T20:17:02.350Z,13.7
2019-03-20T20:27:02.509Z,10.6
2019-03-20T20:37:02.051Z,10.6
2019-03-20T20:47:11.847Z,12.1
2019-03-20T20:57:14.850Z,7.3
2019-03-20T21:07:16.441Z,10.6
2019-03-20T21:17:31.439Z,6.1
2019-03-20T21:27:31.538Z,7
2019-03-20T21:37:31.394Z,5.9
2019-03-20T21:47:38.601Z,6.9
2019-03-20T21:57:38.137Z,6.3
2019-03-20T22:07:54.614Z,12.1
2019-03-20T22:17:54.787Z,11.4
2019-03-20T22:27:53.013Z,8.4
2019-03-20T22:37:52.626Z,8.8
2019-03-20T22:48:01.562Z,5.5
2019-03-20T22:58:01.562Z,5.2
2019-03-20T23:08:01.562Z,4.8
2019-03-20T23:18:12.042Z,9.9
2019-03-20T23:28:15.244Z,4.8
2019-03-20T23:38:16.054Z,5.9
2019-03-20T23:48:24.805Z,5.9
2019-03-20T23:58:25.118Z,5.2
